sensor_id;sensor_type;location;lat;lon;timestamp;temperature;humidity
7496;DHT22;3789;47.064;15.482;2023-11-21T00:00:50;6.30;99.90
7496;DHT22;3789;47.064;15.482;2023-11-21T00:03:23;6.50;99.90
7496;DHT22;3789;47.064;15.482;2023-11-21T00:06:03;6.50;99.90
7496;DHT22;3789;47.064;15.482;2023-11-21T00:08:33;6.40;99.90
7496;DHT22;3789;47.064;15.482;2023-11-21T00:11:05;6.30;99.90
7496;DHT22;3789;47.064;15.482;2023-11-21T00:13:34;6.30;99.90
7496;DHT22;3789;47.064;15.482;2023-11-21T00:16:09;6.20;99.90
7496;DHT22;3789;47.064;15.482;2023-11-21T00:18:41;6.20;99.90
7496;DHT22;3789;47.064;15.482;2023-11-21T00:21:18;6.10;99.90
7496;DHT22;3789;47.064;15.482;2023-11-21T00:23:49;6.20;99.90
7496;DHT22;3789;47.064;15.482;2023-11-21T00:26:21;6.10;99.90
7496;DHT22;3789;47.064;15.482;2023-11-21T00:28:53;6.10;99.90
7496;DHT22;3789;47.064;15.482;2023-11-21T00:31:23;6.00;99.90
7496;DHT22;3789;47.064;15.482;2023-11-21T00:33:54;5.90;99.90
7496;DHT22;3789;47.064;15.482;2023-11-21T00:36:28;5.80;99.90
7496;DHT22;3789;47.064;15.482;2023-11-21T00:38:59;5.60;99.90
7496;DHT22;3789;47.064;15.482;2023-11-21T00:41:29;5.50;99.90
7496;DHT22;3789;47.064;15.482;2023-11-21T00:43:58;5.60;99.90
7496;DHT22;3789;47.064;15.482;2023-11-21T00:46:40;5.50;99.90
7496;DHT22;3789;47.064;15.482;2023-11-21T00:49:11;5.50;99.90
7496;DHT22;3789;47.064;15.482;2023-11-21T00:51:44;5.60;99.90
7496;DHT22;3789;47.064;15.482;2023-11-21T00:54:13;5.60;99.90
7496;DHT22;3789;47.064;15.482;2023-11-21T00:56:51;5.50;99.90
7496;DHT22;3789;47.064;15.482;2023-11-21T00:59:24;5.70;99.90
7496;DHT22;3789;47.064;15.482;2023-11-21T01:01:53;5.60;99.90
7496;DHT22;3789;47.064;15.482;2023-11-21T01:04:25;5.60;99.90
7496;DHT22;3789;47.064;15.482;2023-11-21T01:06:58;5.80;99.90
7496;DHT22;3789;47.064;15.482;2023-11-21T01:09:29;5.80;99.90
7496;DHT22;3789;47.064;15.482;2023-11-21T01:12:03;5.60;99.90
7496;DHT22;3789;47.064;15.482;2023-11-21T01:14:34;5.50;99.90
7496;DHT22;3789;47.064;15.482;2023-11-21T01:17:07;5.60;99.90
7496;DHT22;3789;47.064;15.482;2023-11-21T01:19:38;5.60;99.90
7496;DHT22;3789;47.064;15.482;2023-11-21T01:22:12;5.60;99.90
7496;DHT22;3789;47.064;15.482;2023-11-21T01:24:43;5.70;99.90
7496;DHT22;3789;47.064;15.482;2023-11-21T01:27:13;5.90;99.90
7496;DHT22;3789;47.064;15.482;2023-11-21T01:29:47;6.10;99.90
7496;DHT22;3789;47.064;15.482;2023-11-21T01:32:23;6.10;99.90
7496;DHT22;3789;47.064;15.482;2023-11-21T01:35:03;6.10;99.90
7496;DHT22;3789;47.064;15.482;2023-11-21T01:37:39;6.20;99.90
7496;DHT22;3789;47.064;15.482;2023-11-21T01:40:23;6.30;99.90
7496;DHT22;3789;47.064;15.482;2023-11-21T01:42:56;6.50;99.90
7496;DHT22;3789;47.064;15.482;2023-11-21T01:45:26;6.80;99.90
7496;DHT22;3789;47.064;15.482;2023-11-21T01:47:57;6.90;99.90
7496;DHT22;3789;47.064;15.482;2023-11-21T01:50:46;7.00;99.90
7496;DHT22;3789;47.064;15.482;2023-11-21T01:53:16;6.90;99.90
7496;DHT22;3789;47.064;15.482;2023-11-21T01:55:47;7.00;99.90
7496;DHT22;3789;47.064;15.482;2023-11-21T01:58:23;6.80;99.90
7496;DHT22;3789;47.064;15.482;2023-11-21T02:00:56;6.50;99.90
7496;DHT22;3789;47.064;15.482;2023-11-21T02:03:26;6.20;99.90
7496;DHT22;3789;47.064;15.482;2023-11-21T02:05:57;5.90;99.90
7496;DHT22;3789;47.064;15.482;2023-11-21T02:08:28;6.00;99.90
7496;DHT22;3789;47.064;15.482;2023-11-21T02:10:58;6.10;99.90
7496;DHT22;3789;47.064;15.482;2023-11-21T02:13:29;6.00;99.90
7496;DHT22;3789;47.064;15.482;2023-11-21T02:15:57;5.90;99.90
7496;DHT22;3789;47.064;15.482;2023-11-21T02:18:28;6.00;99.90
7496;DHT22;3789;47.064;15.482;2023-11-21T02:20:57;6.20;99.90
7496;DHT22;3789;47.064;15.482;2023-11-21T02:23:38;6.30;99.90
7496;DHT22;3789;47.064;15.482;2023-11-21T02:26:13;6.40;99.90
7496;DHT22;3789;47.064;15.482;2023-11-21T02:28:45;6.50;99.90
7496;DHT22;3789;47.064;15.482;2023-11-21T02:31:13;6.60;99.90
7496;DHT22;3789;47.064;15.482;2023-11-21T02:33:56;6.80;99.90
7496;DHT22;3789;47.064;15.482;2023-11-21T02:36:33;6.90;99.90
7496;DHT22;3789;47.064;15.482;2023-11-21T02:39:03;7.00;99.90
7496;DHT22;3789;47.064;15.482;2023-11-21T02:41:33;7.00;99.90
7496;DHT22;3789;47.064;15.482;2023-11-21T02:44:07;7.00;99.90
7496;DHT22;3789;47.064;15.482;2023-11-21T02:46:37;7.10;99.90
7496;DHT22;3789;47.064;15.482;2023-11-21T02:49:13;7.20;99.90
7496;DHT22;3789;47.064;15.482;2023-11-21T02:51:45;7.20;99.90
7496;DHT22;3789;47.064;15.482;2023-11-21T02:54:14;6.90;99.90
7496;DHT22;3789;47.064;15.482;2023-11-21T02:56:49;6.80;99.90
7496;DHT22;3789;47.064;15.482;2023-11-21T02:59:29;6.90;99.90
7496;DHT22;3789;47.064;15.482;2023-11-21T03:02:05;6.90;99.90
7496;DHT22;3789;47.064;15.482;2023-11-21T03:04:36;7.00;99.90
7496;DHT22;3789;47.064;15.482;2023-11-21T03:07:06;7.10;99.90
7496;DHT22;3789;47.064;15.482;2023-11-21T03:09:37;7.40;99.90
7496;DHT22;3789;47.064;15.482;2023-11-21T03:12:05;7.50;99.90
7496;DHT22;3789;47.064;15.482;2023-11-21T03:14:40;7.40;99.90
7496;DHT22;3789;47.064;15.482;2023-11-21T03:17:16;7.60;99.90
7496;DHT22;3789;47.064;15.482;2023-11-21T03:19:47;7.70;99.90
7496;DHT22;3789;47.064;15.482;2023-11-21T03:22:16;7.70;99.90
7496;DHT22;3789;47.064;15.482;2023-11-21T03:24:45;7.70;99.90
7496;DHT22;3789;47.064;15.482;2023-11-21T03:27:15;7.70;99.90
7496;DHT22;3789;47.064;15.482;2023-11-21T03:29:53;7.90;99.90
7496;DHT22;3789;47.064;15.482;2023-11-21T03:32:23;7.90;99.90
7496;DHT22;3789;47.064;15.482;2023-11-21T03:34:57;7.80;99.90
7496;DHT22;3789;47.064;15.482;2023-11-21T03:37:27;7.60;99.90
7496;DHT22;3789;47.064;15.482;2023-11-21T03:40:00;7.60;99.90
7496;DHT22;3789;47.064;15.482;2023-11-21T03:42:49;7.70;99.90
7496;DHT22;3789;47.064;15.482;2023-11-21T03:45:20;7.70;99.90
7496;DHT22;3789;47.064;15.482;2023-11-21T03:47:50;7.80;99.90
7496;DHT22;3789;47.064;15.482;2023-11-21T03:50:20;7.60;99.90
7496;DHT22;3789;47.064;15.482;2023-11-21T03:52:50;7.60;99.90
7496;DHT22;3789;47.064;15.482;2023-11-21T03:55:19;7.60;99.90
7496;DHT22;3789;47.064;15.482;2023-11-21T03:57:48;7.50;99.90
7496;DHT22;3789;47.064;15.482;2023-11-21T04:00:16;7.50;99.90
7496;DHT22;3789;47.064;15.482;2023-11-21T04:02:47;7.50;99.90
7496;DHT22;3789;47.064;15.482;2023-11-21T04:05:14;7.40;99.90
7496;DHT22;3789;47.064;15.482;2023-11-21T04:07:44;7.40;99.90
7496;DHT22;3789;47.064;15.482;2023-11-21T04:10:12;7.50;99.90
7496;DHT22;3789;47.064;15.482;2023-11-21T04:12:47;7.60;99.90
7496;DHT22;3789;47.064;15.482;2023-11-21T04:15:23;7.70;99.90
7496;DHT22;3789;47.064;15.482;2023-11-21T04:17:58;7.50;99.90
7496;DHT22;3789;47.064;15.482;2023-11-21T04:20:27;7.30;99.90
7496;DHT22;3789;47.064;15.482;2023-11-21T04:22:56;7.20;99.90
7496;DHT22;3789;47.064;15.482;2023-11-21T04:25:33;7.10;99.90
7496;DHT22;3789;47.064;15.482;2023-11-21T04:28:03;7.30;99.90
7496;DHT22;3789;47.064;15.482;2023-11-21T04:30:33;7.20;99.90
7496;DHT22;3789;47.064;15.482;2023-11-21T04:33:03;7.00;99.90
7496;DHT22;3789;47.064;15.482;2023-11-21T04:35:33;7.00;99.90
7496;DHT22;3789;47.064;15.482;2023-11-21T04:38:06;7.20;99.90
7496;DHT22;3789;47.064;15.482;2023-11-21T04:40:36;7.20;99.90
7496;DHT22;3789;47.064;15.482;2023-11-21T04:43:03;7.20;99.90
7496;DHT22;3789;47.064;15.482;2023-11-21T04:45:36;7.30;99.90
7496;DHT22;3789;47.064;15.482;2023-11-21T04:48:07;7.20;99.90
7496;DHT22;3789;47.064;15.482;2023-11-21T04:50:39;7.10;99.90
7496;DHT22;3789;47.064;15.482;2023-11-21T04:53:09;7.20;99.90
7496;DHT22;3789;47.064;15.482;2023-11-21T04:55:38;7.20;99.90
7496;DHT22;3789;47.064;15.482;2023-11-21T04:58:09;7.30;99.90
7496;DHT22;3789;47.064;15.482;2023-11-21T05:00:40;7.10;99.90
7496;DHT22;3789;47.064;15.482;2023-11-21T05:03:12;7.00;99.90
7496;DHT22;3789;47.064;15.482;2023-11-21T05:05:42;6.90;99.90
7496;DHT22;3789;47.064;15.482;2023-11-21T05:08:12;6.80;99.90
7496;DHT22;3789;47.064;15.482;2023-11-21T05:10:42;6.80;99.90
7496;DHT22;3789;47.064;15.482;2023-11-21T05:13:12;6.80;99.90
7496;DHT22;3789;47.064;15.482;2023-11-21T05:15:42;6.90;99.90
7496;DHT22;3789;47.064;15.482;2023-11-21T05:18:22;6.80;99.90
7496;DHT22;3789;47.064;15.482;2023-11-21T05:20:52;6.60;99.90
7496;DHT22;3789;47.064;15.482;2023-11-21T05:23:23;6.50;99.90
7496;DHT22;3789;47.064;15.482;2023-11-21T05:26:02;6.60;99.90
7496;DHT22;3789;47.064;15.482;2023-11-21T05:28:32;6.60;99.90
7496;DHT22;3789;47.064;15.482;2023-11-21T05:31:03;6.50;99.90
7496;DHT22;3789;47.064;15.482;2023-11-21T05:33:43;6.50;99.90
7496;DHT22;3789;47.064;15.482;2023-11-21T05:36:10;6.40;99.90
7496;DHT22;3789;47.064;15.482;2023-11-21T05:38:41;6.50;99.90
7496;DHT22;3789;47.064;15.482;2023-11-21T05:41:11;6.40;99.90
7496;DHT22;3789;47.064;15.482;2023-11-21T05:43:41;6.40;99.90
7496;DHT22;3789;47.064;15.482;2023-11-21T05:46:09;6.40;99.90
7496;DHT22;3789;47.064;15.482;2023-11-21T05:48:38;6.40;99.90
7496;DHT22;3789;47.064;15.482;2023-11-21T05:51:09;6.40;99.90
7496;DHT22;3789;47.064;15.482;2023-11-21T05:53:42;6.60;99.90
7496;DHT22;3789;47.064;15.482;2023-11-21T05:56:19;6.70;99.90
7496;DHT22;3789;47.064;15.482;2023-11-21T05:58:52;6.80;99.90
7496;DHT22;3789;47.064;15.482;2023-11-21T06:01:28;6.70;99.90
7496;DHT22;3789;47.064;15.482;2023-11-21T06:03:55;6.50;99.90
7496;DHT22;3789;47.064;15.482;2023-11-21T06:06:26;6.30;99.90
7496;DHT22;3789;47.064;15.482;2023-11-21T06:09:06;6.10;99.90
7496;DHT22;3789;47.064;15.482;2023-11-21T06:11:39;6.00;99.90
7496;DHT22;3789;47.064;15.482;2023-11-21T06:14:07;6.30;99.90
7496;DHT22;3789;47.064;15.482;2023-11-21T06:16:39;6.30;99.90
7496;DHT22;3789;47.064;15.482;2023-11-21T06:19:09;6.20;99.90
7496;DHT22;3789;47.064;15.482;2023-11-21T06:21:45;6.20;99.90
7496;DHT22;3789;47.064;15.482;2023-11-21T06:24:17;6.50;99.90
7496;DHT22;3789;47.064;15.482;2023-11-21T06:26:56;6.50;99.90
7496;DHT22;3789;47.064;15.482;2023-11-21T06:29:25;6.40;99.90
7496;DHT22;3789;47.064;15.482;2023-11-21T06:31:55;6.40;99.90
7496;DHT22;3789;47.064;15.482;2023-11-21T06:34:25;6.50;99.90
7496;DHT22;3789;47.064;15.482;2023-11-21T06:36:59;6.40;99.90
7496;DHT22;3789;47.064;15.482;2023-11-21T06:39:28;6.20;99.90
7496;DHT22;3789;47.064;15.482;2023-11-21T06:41:58;6.20;99.90
7496;DHT22;3789;47.064;15.482;2023-11-21T06:44:29;6.40;99.90
7496;DHT22;3789;47.064;15.482;2023-11-21T06:46:58;6.50;99.90
7496;DHT22;3789;47.064;15.482;2023-11-21T06:49:30;6.40;99.90
7496;DHT22;3789;47.064;15.482;2023-11-21T06:52:01;6.40;99.90
7496;DHT22;3789;47.064;15.482;2023-11-21T06:54:34;6.40;99.90
7496;DHT22;3789;47.064;15.482;2023-11-21T06:57:06;6.30;99.90
7496;DHT22;3789;47.064;15.482;2023-11-21T06:59:35;6.40;99.90
7496;DHT22;3789;47.064;15.482;2023-11-21T07:02:04;6.50;99.90
7496;DHT22;3789;47.064;15.482;2023-11-21T07:04:37;6.70;99.90
7496;DHT22;3789;47.064;15.482;2023-11-21T07:07:08;6.70;99.90
7496;DHT22;3789;47.064;15.482;2023-11-21T07:09:38;6.60;99.90
7496;DHT22;3789;47.064;15.482;2023-11-21T07:12:07;6.50;99.90
7496;DHT22;3789;47.064;15.482;2023-11-21T07:14:35;6.40;99.90
7496;DHT22;3789;47.064;15.482;2023-11-21T07:17:03;6.40;99.90
7496;DHT22;3789;47.064;15.482;2023-11-21T07:19:40;6.50;99.90
7496;DHT22;3789;47.064;15.482;2023-11-21T07:22:13;6.50;99.90
7496;DHT22;3789;47.064;15.482;2023-11-21T07:24:49;6.50;99.90
7496;DHT22;3789;47.064;15.482;2023-11-21T07:27:24;6.70;99.90
7496;DHT22;3789;47.064;15.482;2023-11-21T07:29:52;6.70;99.90
7496;DHT22;3789;47.064;15.482;2023-11-21T07:32:24;6.90;99.90
7496;DHT22;3789;47.064;15.482;2023-11-21T07:35:00;7.10;99.90
7496;DHT22;3789;47.064;15.482;2023-11-21T07:37:33;7.20;99.90
7496;DHT22;3789;47.064;15.482;2023-11-21T07:40:08;7.30;99.90
7496;DHT22;3789;47.064;15.482;2023-11-21T07:42:41;7.40;99.90
7496;DHT22;3789;47.064;15.482;2023-11-21T07:45:14;7.30;99.90
7496;DHT22;3789;47.064;15.482;2023-11-21T07:47:49;7.30;99.90
7496;DHT22;3789;47.064;15.482;2023-11-21T07:50:21;7.20;99.90
7496;DHT22;3789;47.064;15.482;2023-11-21T07:52:55;7.10;99.90
7496;DHT22;3789;47.064;15.482;2023-11-21T07:55:24;7.10;99.90
7496;DHT22;3789;47.064;15.482;2023-11-21T07:57:54;7.10;99.90
7496;DHT22;3789;47.064;15.482;2023-11-21T08:00:27;7.20;99.90
7496;DHT22;3789;47.064;15.482;2023-11-21T08:02:59;7.40;99.90
7496;DHT22;3789;47.064;15.482;2023-11-21T08:05:29;7.60;99.90
7496;DHT22;3789;47.064;15.482;2023-11-21T08:08:04;7.70;99.90
7496;DHT22;3789;47.064;15.482;2023-11-21T08:10:34;7.70;99.90
7496;DHT22;3789;47.064;15.482;2023-11-21T08:13:05;7.80;99.90
7496;DHT22;3789;47.064;15.482;2023-11-21T08:15:43;7.80;99.90
7496;DHT22;3789;47.064;15.482;2023-11-21T08:18:16;7.90;99.90
7496;DHT22;3789;47.064;15.482;2023-11-21T08:20:51;7.90;99.90
7496;DHT22;3789;47.064;15.482;2023-11-21T08:23:27;7.90;99.90
7496;DHT22;3789;47.064;15.482;2023-11-21T08:25:57;8.00;99.90
7496;DHT22;3789;47.064;15.482;2023-11-21T08:28:26;8.00;99.90
7496;DHT22;3789;47.064;15.482;2023-11-21T08:31:04;8.00;99.90
7496;DHT22;3789;47.064;15.482;2023-11-21T08:33:37;7.90;99.90
7496;DHT22;3789;47.064;15.482;2023-11-21T08:36:11;7.80;99.90
7496;DHT22;3789;47.064;15.482;2023-11-21T08:38:41;7.80;99.90
7496;DHT22;3789;47.064;15.482;2023-11-21T08:41:11;7.80;99.90
7496;DHT22;3789;47.064;15.482;2023-11-21T08:43:42;7.90;99.90
7496;DHT22;3789;47.064;15.482;2023-11-21T08:46:20;7.90;99.90
7496;DHT22;3789;47.064;15.482;2023-11-21T08:48:51;8.10;99.90
7496;DHT22;3789;47.064;15.482;2023-11-21T08:51:22;8.20;99.90
7496;DHT22;3789;47.064;15.482;2023-11-21T08:53:52;8.20;99.90
7496;DHT22;3789;47.064;15.482;2023-11-21T08:56:22;8.00;99.90
7496;DHT22;3789;47.064;15.482;2023-11-21T08:58:53;8.00;99.90
7496;DHT22;3789;47.064;15.482;2023-11-21T09:01:32;8.10;99.90
7496;DHT22;3789;47.064;15.482;2023-11-21T09:04:02;8.20;99.90
7496;DHT22;3789;47.064;15.482;2023-11-21T09:06:32;8.30;99.90
7496;DHT22;3789;47.064;15.482;2023-11-21T09:09:03;8.40;99.90
7496;DHT22;3789;47.064;15.482;2023-11-21T09:11:35;8.30;99.90
7496;DHT22;3789;47.064;15.482;2023-11-21T09:14:06;8.50;99.90
7496;DHT22;3789;47.064;15.482;2023-11-21T09:16:43;8.60;99.90
7496;DHT22;3789;47.064;15.482;2023-11-21T09:19:13;8.50;99.90
7496;DHT22;3789;47.064;15.482;2023-11-21T09:21:42;8.50;99.90
7496;DHT22;3789;47.064;15.482;2023-11-21T09:24:11;8.50;99.90
7496;DHT22;3789;47.064;15.482;2023-11-21T09:26:40;8.50;99.90
7496;DHT22;3789;47.064;15.482;2023-11-21T09:29:11;8.50;99.90
7496;DHT22;3789;47.064;15.482;2023-11-21T09:31:40;8.50;99.90
7496;DHT22;3789;47.064;15.482;2023-11-21T09:34:14;8.60;99.90
7496;DHT22;3789;47.064;15.482;2023-11-21T09:36:51;8.70;99.90
7496;DHT22;3789;47.064;15.482;2023-11-21T09:39:23;8.70;99.90
7496;DHT22;3789;47.064;15.482;2023-11-21T09:41:54;8.70;99.90
7496;DHT22;3789;47.064;15.482;2023-11-21T09:44:39;8.80;99.90
7496;DHT22;3789;47.064;15.482;2023-11-21T09:47:35;8.80;99.90
7496;DHT22;3789;47.064;15.482;2023-11-21T09:50:25;8.70;99.90
7496;DHT22;3789;47.064;15.482;2023-11-21T09:53:21;8.80;99.90
7496;DHT22;3789;47.064;15.482;2023-11-21T09:55:55;8.90;99.90
7496;DHT22;3789;47.064;15.482;2023-11-21T09:58:28;8.90;99.90
7496;DHT22;3789;47.064;15.482;2023-11-21T10:01:00;8.90;99.90
7496;DHT22;3789;47.064;15.482;2023-11-21T10:03:36;8.80;99.90
7496;DHT22;3789;47.064;15.482;2023-11-21T10:06:18;8.80;99.90
7496;DHT22;3789;47.064;15.482;2023-11-21T10:08:54;8.90;99.90
7496;DHT22;3789;47.064;15.482;2023-11-21T10:11:30;9.00;99.90
7496;DHT22;3789;47.064;15.482;2023-11-21T10:14:11;9.00;99.90
7496;DHT22;3789;47.064;15.482;2023-11-21T10:16:53;9.00;99.90
7496;DHT22;3789;47.064;15.482;2023-11-21T10:19:27;8.90;99.90
7496;DHT22;3789;47.064;15.482;2023-11-21T10:22:01;8.90;99.90
7496;DHT22;3789;47.064;15.482;2023-11-21T10:24:31;8.70;99.90
7496;DHT22;3789;47.064;15.482;2023-11-21T10:27:21;8.60;99.90
7496;DHT22;3789;47.064;15.482;2023-11-21T10:29:53;8.70;99.90
7496;DHT22;3789;47.064;15.482;2023-11-21T10:32:28;8.60;99.90
7496;DHT22;3789;47.064;15.482;2023-11-21T10:35:03;8.70;99.90
7496;DHT22;3789;47.064;15.482;2023-11-21T10:37:40;8.60;99.90
7496;DHT22;3789;47.064;15.482;2023-11-21T10:40:10;8.60;99.90
7496;DHT22;3789;47.064;15.482;2023-11-21T10:42:41;8.60;99.90
7496;DHT22;3789;47.064;15.482;2023-11-21T10:45:16;8.50;99.90
7496;DHT22;3789;47.064;15.482;2023-11-21T10:47:44;8.50;99.90
7496;DHT22;3789;47.064;15.482;2023-11-21T10:50:14;8.70;99.90
7496;DHT22;3789;47.064;15.482;2023-11-21T10:52:48;8.70;99.90
7496;DHT22;3789;47.064;15.482;2023-11-21T10:55:23;8.70;99.90
7496;DHT22;3789;47.064;15.482;2023-11-21T10:57:59;8.80;99.90
7496;DHT22;3789;47.064;15.482;2023-11-21T11:00:40;8.80;99.90
7496;DHT22;3789;47.064;15.482;2023-11-21T11:03:11;8.80;99.90
7496;DHT22;3789;47.064;15.482;2023-11-21T11:05:47;8.80;99.90
7496;DHT22;3789;47.064;15.482;2023-11-21T11:08:25;8.90;99.90
7496;DHT22;3789;47.064;15.482;2023-11-21T11:10:57;8.90;99.90
7496;DHT22;3789;47.064;15.482;2023-11-21T11:13:30;8.90;99.90
7496;DHT22;3789;47.064;15.482;2023-11-21T11:16:04;8.90;99.90
7496;DHT22;3789;47.064;15.482;2023-11-21T11:18:35;8.80;99.90
7496;DHT22;3789;47.064;15.482;2023-11-21T11:25:21;8.90;99.90
7496;DHT22;3789;47.064;15.482;2023-11-21T11:28:20;8.90;99.90
7496;DHT22;3789;47.064;15.482;2023-11-21T11:34:30;8.90;99.90
7496;DHT22;3789;47.064;15.482;2023-11-21T11:37:08;8.90;99.90
7496;DHT22;3789;47.064;15.482;2023-11-21T11:39:43;8.90;99.90
7496;DHT22;3789;47.064;15.482;2023-11-21T11:42:21;8.90;99.90
7496;DHT22;3789;47.064;15.482;2023-11-21T11:44:51;8.90;99.90
7496;DHT22;3789;47.064;15.482;2023-11-21T11:50:07;8.80;99.90
7496;DHT22;3789;47.064;15.482;2023-11-21T11:52:52;8.70;99.90
7496;DHT22;3789;47.064;15.482;2023-11-21T11:56:33;8.80;99.90
7496;DHT22;3789;47.064;15.482;2023-11-21T11:59:03;8.90;99.90
7496;DHT22;3789;47.064;15.482;2023-11-21T12:01:46;8.90;99.90
7496;DHT22;3789;47.064;15.482;2023-11-21T12:06:55;9.00;99.90
7496;DHT22;3789;47.064;15.482;2023-11-21T12:09:35;9.10;99.90
7496;DHT22;3789;47.064;15.482;2023-11-21T12:12:05;9.00;99.90
7496;DHT22;3789;47.064;15.482;2023-11-21T12:14:36;9.00;99.90
7496;DHT22;3789;47.064;15.482;2023-11-21T12:17:11;9.00;99.90
7496;DHT22;3789;47.064;15.482;2023-11-21T12:19:45;9.00;99.90
7496;DHT22;3789;47.064;15.482;2023-11-21T12:22:19;9.00;99.90
7496;DHT22;3789;47.064;15.482;2023-11-21T12:24:48;9.10;99.90
7496;DHT22;3789;47.064;15.482;2023-11-21T12:27:18;9.20;99.90
7496;DHT22;3789;47.064;15.482;2023-11-21T12:29:50;9.30;99.90
7496;DHT22;3789;47.064;15.482;2023-11-21T12:32:26;9.30;99.90
7496;DHT22;3789;47.064;15.482;2023-11-21T12:34:57;9.30;99.90
7496;DHT22;3789;47.064;15.482;2023-11-21T12:37:27;9.40;99.90
7496;DHT22;3789;47.064;15.482;2023-11-21T12:39:58;9.40;99.90
7496;DHT22;3789;47.064;15.482;2023-11-21T12:42:29;9.30;99.90
7496;DHT22;3789;47.064;15.482;2023-11-21T12:45:08;9.30;99.90
7496;DHT22;3789;47.064;15.482;2023-11-21T12:47:54;9.40;99.90
7496;DHT22;3789;47.064;15.482;2023-11-21T12:50:46;9.30;99.90
7496;DHT22;3789;47.064;15.482;2023-11-21T12:53:20;9.20;99.90
7496;DHT22;3789;47.064;15.482;2023-11-21T12:55:56;9.30;99.90
7496;DHT22;3789;47.064;15.482;2023-11-21T12:58:30;9.30;99.90
7496;DHT22;3789;47.064;15.482;2023-11-21T13:01:00;9.30;99.90
7496;DHT22;3789;47.064;15.482;2023-11-21T13:03:33;9.30;99.90
7496;DHT22;3789;47.064;15.482;2023-11-21T13:06:15;9.20;99.90
7496;DHT22;3789;47.064;15.482;2023-11-21T13:08:46;9.20;99.90
7496;DHT22;3789;47.064;15.482;2023-11-21T13:11:15;9.20;99.90
7496;DHT22;3789;47.064;15.482;2023-11-21T13:13:52;9.20;99.90
7496;DHT22;3789;47.064;15.482;2023-11-21T13:16:23;9.10;99.90
7496;DHT22;3789;47.064;15.482;2023-11-21T13:18:56;9.10;99.90
7496;DHT22;3789;47.064;15.482;2023-11-21T13:21:28;9.20;99.90
7496;DHT22;3789;47.064;15.482;2023-11-21T13:24:04;9.30;99.90
7496;DHT22;3789;47.064;15.482;2023-11-21T13:26:34;9.50;99.90
7496;DHT22;3789;47.064;15.482;2023-11-21T13:29:02;9.30;99.90
7496;DHT22;3789;47.064;15.482;2023-11-21T13:31:34;9.20;99.90
7496;DHT22;3789;47.064;15.482;2023-11-21T13:34:06;9.20;99.90
7496;DHT22;3789;47.064;15.482;2023-11-21T13:36:37;9.10;99.90
7496;DHT22;3789;47.064;15.482;2023-11-21T13:39:08;9.10;99.90
7496;DHT22;3789;47.064;15.482;2023-11-21T13:41:44;9.20;99.90
7496;DHT22;3789;47.064;15.482;2023-11-21T13:44:18;9.20;99.90
7496;DHT22;3789;47.064;15.482;2023-11-21T13:47:13;9.10;99.90
7496;DHT22;3789;47.064;15.482;2023-11-21T13:49:40;9.00;99.90
7496;DHT22;3789;47.064;15.482;2023-11-21T13:52:14;9.00;99.90
7496;DHT22;3789;47.064;15.482;2023-11-21T13:54:45;9.00;99.90
7496;DHT22;3789;47.064;15.482;2023-11-21T13:57:20;9.00;99.90
7496;DHT22;3789;47.064;15.482;2023-11-21T13:59:48;9.00;99.90
7496;DHT22;3789;47.064;15.482;2023-11-21T14:02:17;9.00;99.90
7496;DHT22;3789;47.064;15.482;2023-11-21T14:04:55;9.00;99.90
7496;DHT22;3789;47.064;15.482;2023-11-21T14:07:48;9.20;99.90
7496;DHT22;3789;47.064;15.482;2023-11-21T14:10:18;9.10;99.90
7496;DHT22;3789;47.064;15.482;2023-11-21T14:12:51;9.00;99.90
7496;DHT22;3789;47.064;15.482;2023-11-21T14:15:22;8.90;99.90
7496;DHT22;3789;47.064;15.482;2023-11-21T14:17:53;8.90;99.90
7496;DHT22;3789;47.064;15.482;2023-11-21T14:20:21;8.80;99.90
7496;DHT22;3789;47.064;15.482;2023-11-21T14:22:52;8.80;99.90
7496;DHT22;3789;47.064;15.482;2023-11-21T14:25:30;8.70;99.90
7496;DHT22;3789;47.064;15.482;2023-11-21T14:28:05;8.70;99.90
7496;DHT22;3789;47.064;15.482;2023-11-21T14:30:34;8.80;99.90
7496;DHT22;3789;47.064;15.482;2023-11-21T14:33:31;8.70;99.90
7496;DHT22;3789;47.064;15.482;2023-11-21T14:36:08;8.60;99.90
7496;DHT22;3789;47.064;15.482;2023-11-21T14:38:38;8.50;99.90
7496;DHT22;3789;47.064;15.482;2023-11-21T14:41:17;8.40;99.90
7496;DHT22;3789;47.064;15.482;2023-11-21T14:43:55;8.30;99.90
7496;DHT22;3789;47.064;15.482;2023-11-21T14:46:29;8.30;99.90
7496;DHT22;3789;47.064;15.482;2023-11-21T14:48:58;8.40;99.90
7496;DHT22;3789;47.064;15.482;2023-11-21T14:51:51;8.50;99.90
7496;DHT22;3789;47.064;15.482;2023-11-21T14:55:01;8.50;99.90
7496;DHT22;3789;47.064;15.482;2023-11-21T14:58:13;8.40;99.90
7496;DHT22;3789;47.064;15.482;2023-11-21T15:01:05;8.20;99.90
7496;DHT22;3789;47.064;15.482;2023-11-21T15:03:55;7.80;99.90
7496;DHT22;3789;47.064;15.482;2023-11-21T15:06:26;7.50;99.90
7496;DHT22;3789;47.064;15.482;2023-11-21T15:09:16;7.40;99.90
7496;DHT22;3789;47.064;15.482;2023-11-21T15:11:56;7.40;99.90
7496;DHT22;3789;47.064;15.482;2023-11-21T15:14:34;7.50;99.90
7496;DHT22;3789;47.064;15.482;2023-11-21T15:17:26;7.70;99.90
7496;DHT22;3789;47.064;15.482;2023-11-21T15:19:55;7.60;99.90
7496;DHT22;3789;47.064;15.482;2023-11-21T15:22:45;7.60;99.90
7496;DHT22;3789;47.064;15.482;2023-11-21T15:25:15;7.60;99.90
7496;DHT22;3789;47.064;15.482;2023-11-21T15:27:46;7.60;99.90
7496;DHT22;3789;47.064;15.482;2023-11-21T15:30:21;7.60;99.90
7496;DHT22;3789;47.064;15.482;2023-11-21T15:33:03;7.60;99.90
7496;DHT22;3789;47.064;15.482;2023-11-21T15:35:33;7.70;99.90
7496;DHT22;3789;47.064;15.482;2023-11-21T15:38:07;7.70;99.90
7496;DHT22;3789;47.064;15.482;2023-11-21T15:40:43;7.70;99.90
7496;DHT22;3789;47.064;15.482;2023-11-21T15:43:17;7.70;99.90
7496;DHT22;3789;47.064;15.482;2023-11-21T15:45:46;7.70;99.90
7496;DHT22;3789;47.064;15.482;2023-11-21T15:48:25;7.70;99.90
7496;DHT22;3789;47.064;15.482;2023-11-21T15:50:56;7.70;99.90
7496;DHT22;3789;47.064;15.482;2023-11-21T15:53:26;7.60;99.90
7496;DHT22;3789;47.064;15.482;2023-11-21T15:55:57;7.60;99.90
7496;DHT22;3789;47.064;15.482;2023-11-21T15:58:27;7.60;99.90
7496;DHT22;3789;47.064;15.482;2023-11-21T16:00:57;7.60;99.90
7496;DHT22;3789;47.064;15.482;2023-11-21T16:03:27;7.50;99.90
7496;DHT22;3789;47.064;15.482;2023-11-21T16:06:02;7.70;99.90
7496;DHT22;3789;47.064;15.482;2023-11-21T16:08:37;7.70;99.90
7496;DHT22;3789;47.064;15.482;2023-11-21T16:11:05;7.80;99.90
7496;DHT22;3789;47.064;15.482;2023-11-21T16:13:35;7.80;99.90
7496;DHT22;3789;47.064;15.482;2023-11-21T16:16:04;7.70;99.90
7496;DHT22;3789;47.064;15.482;2023-11-21T16:18:34;7.50;99.90
7496;DHT22;3789;47.064;15.482;2023-11-21T16:21:03;7.40;99.90
7496;DHT22;3789;47.064;15.482;2023-11-21T16:23:34;7.40;99.90
7496;DHT22;3789;47.064;15.482;2023-11-21T16:26:04;7.40;99.90
7496;DHT22;3789;47.064;15.482;2023-11-21T16:28:34;7.40;99.90
7496;DHT22;3789;47.064;15.482;2023-11-21T16:31:04;7.40;99.90
7496;DHT22;3789;47.064;15.482;2023-11-21T16:33:34;7.30;99.90
7496;DHT22;3789;47.064;15.482;2023-11-21T16:36:08;7.20;99.90
7496;DHT22;3789;47.064;15.482;2023-11-21T16:38:41;7.10;99.90
7496;DHT22;3789;47.064;15.482;2023-11-21T16:41:11;7.10;99.90
7496;DHT22;3789;47.064;15.482;2023-11-21T16:43:39;7.10;99.90
7496;DHT22;3789;47.064;15.482;2023-11-21T16:46:11;7.10;99.90
7496;DHT22;3789;47.064;15.482;2023-11-21T16:48:41;7.00;99.90
7496;DHT22;3789;47.064;15.482;2023-11-21T16:51:10;7.10;99.90
7496;DHT22;3789;47.064;15.482;2023-11-21T16:53:48;7.10;99.90
7496;DHT22;3789;47.064;15.482;2023-11-21T16:56:17;7.20;99.90